Time;durP1;ratioP1;P1;durP2;ratioP2;P2;SDS_P1;SDS_P2;PMS_P1;PMS_P2;Temp;Humidity;BMP_temperature;BMP_pressure;BME280_temperature;BME280_humidity;BME280_pressure;Samples;Min_cycle;Max_cycle;Signal;HPM_P1;HPM_P2
2022/04/28 00:00:24;;;;;;;3.75;2.88;;;2.60;99.90;3.10;99108.00;;;;4795424;29;88260;-62
2022/04/28 00:02:51;;;;;;;4.95;3.15;;;2.60;99.90;3.10;99115.00;;;;4799571;29;87575;-62
2022/04/28 00:05:18;;;;;;;5.18;3.42;;;2.60;99.90;3.10;99119.00;;;;4801569;29;87107;-62
2022/04/28 00:07:44;;;;;;;4.32;2.90;;;2.60;99.90;3.20;99116.00;;;;4808360;29;87110;-62
2022/04/28 00:10:11;;;;;;;3.63;2.95;;;2.70;99.90;3.20;99126.00;;;;4804000;29;87342;-62
2022/04/28 00:12:39;;;;;;;4.65;3.10;;;2.70;99.90;3.30;99137.00;;;;4799015;29;87171;-62
2022/04/28 00:15:05;;;;;;;4.72;2.53;;;2.70;99.90;3.30;99121.00;;;;4799032;29;87096;-62
2022/04/28 00:17:32;;;;;;;4.18;2.70;;;2.70;99.90;3.30;99129.00;;;;4800244;29;87104;-63
2022/04/28 00:19:58;;;;;;;4.10;2.65;;;2.80;99.90;3.30;99129.00;;;;4802204;29;87467;-62
2022/04/28 00:22:25;;;;;;;2.55;2.10;;;2.70;99.90;3.20;99143.00;;;;4801837;29;87986;-62
2022/04/28 00:24:52;;;;;;;3.35;2.55;;;2.70;99.90;3.20;99135.00;;;;4802396;29;87365;-62
2022/04/28 00:27:19;;;;;;;5.80;2.38;;;2.70;99.90;3.20;99130.00;;;;4793678;29;89346;-61
2022/04/28 00:29:45;;;;;;;4.80;2.35;;;2.70;99.90;3.10;99144.00;;;;4802920;29;88693;-62
2022/04/28 00:32:12;;;;;;;4.50;3.08;;;2.70;99.90;3.20;99143.00;;;;4795872;29;87207;-60
2022/04/28 00:34:38;;;;;;;4.47;2.63;;;2.60;99.90;3.10;99146.00;;;;4801639;29;87096;-60
2022/04/28 00:37:08;;;;;;;5.18;2.75;;;2.60;99.90;3.00;99140.00;;;;4795192;29;87020;-61
2022/04/28 00:39:34;;;;;;;3.83;2.50;;;2.50;99.90;3.00;99147.00;;;;4797443;29;87208;-60
2022/04/28 00:42:00;;;;;;;3.15;2.25;;;2.50;99.90;2.90;99140.00;;;;4806583;29;87603;-61
2022/04/28 00:44:26;;;;;;;4.20;2.78;;;2.40;99.90;2.90;99147.00;;;;4798276;29;87077;-61
2022/04/28 00:46:52;;;;;;;4.47;3.03;;;2.40;99.90;2.80;99142.00;;;;4808158;29;88788;-59
2022/04/28 00:52:03;;;;;;;6.88;2.90;;;2.30;99.90;2.90;99156.00;;;;4804569;29;87016;-63
2022/04/28 00:54:29;;;;;;;6.80;2.80;;;2.30;99.90;2.80;99160.00;;;;4798870;29;87079;-64
2022/04/28 00:56:58;;;;;;;3.97;2.30;;;2.30;99.90;2.90;99165.00;;;;4802956;29;87767;-63
2022/04/28 00:59:28;;;;;;;3.78;2.88;;;2.40;99.90;3.00;99166.00;;;;4809585;29;87324;-63
2022/04/28 01:01:54;;;;;;;4.53;2.75;;;2.40;99.90;3.10;99169.00;;;;4818135;29;87044;-63
2022/04/28 01:04:20;;;;;;;4.75;2.83;;;2.50;99.90;3.10;99160.00;;;;4803855;29;86808;-64
2022/04/28 01:06:47;;;;;;;4.47;3.03;;;2.50;99.90;3.10;99161.00;;;;4805954;29;87516;-66
2022/04/28 01:09:14;;;;;;;4.57;3.13;;;2.60;99.90;3.10;99161.00;;;;4806176;29;87203;-64
2022/04/28 01:11:41;;;;;;;3.95;3.15;;;2.60;99.90;3.10;99169.00;;;;4800752;29;88338;-65
2022/04/28 01:14:16;;;;;;;6.07;3.97;;;2.50;99.90;3.10;99168.00;;;;4800995;29;87054;-64
2022/04/28 01:16:48;;;;;;;6.45;3.63;;;2.50;99.90;3.10;99163.00;;;;4797894;29;88119;-64
2022/04/28 01:19:14;;;;;;;4.22;3.53;;;2.50;99.90;3.00;99167.00;;;;4795975;29;88435;-64
2022/04/28 01:21:40;;;;;;;5.18;4.00;;;2.50;99.90;3.00;99170.00;;;;4812353;29;87147;-63
2022/04/28 01:24:14;;;;;;;6.18;4.10;;;2.50;99.90;3.00;99181.00;;;;4778992;29;86981;-64
2022/04/28 01:26:42;;;;;;;6.40;4.25;;;2.40;99.90;2.90;99174.00;;;;4805838;29;89094;-64
2022/04/28 01:29:08;;;;;;;8.27;4.30;;;2.30;99.90;2.80;99173.00;;;;4795544;29;88464;-64
2022/04/28 01:31:34;;;;;;;5.82;4.18;;;2.30;99.90;2.80;99175.00;;;;4787378;29;87064;-60
2022/04/28 01:34:03;;;;;;;7.55;4.45;;;2.20;99.90;2.70;99186.00;;;;4798704;29;87144;-61
2022/04/28 01:36:31;;;;;;;6.35;4.22;;;2.20;99.90;2.70;99188.00;;;;4809823;29;88707;-60
2022/04/28 01:38:58;;;;;;;6.50;4.40;;;2.20;99.90;2.70;99196.00;;;;4799033;29;89339;-61
2022/04/28 01:41:24;;;;;;;4.88;4.05;;;2.20;99.90;2.70;99195.00;;;;4793587;29;87054;-61
2022/04/28 01:43:51;;;;;;;6.22;4.25;;;2.20;99.90;2.60;99193.00;;;;4793493;29;87051;-60
2022/04/28 01:46:18;;;;;;;6.22;3.67;;;2.10;99.90;2.60;99194.00;;;;4801990;29;87934;-60
2022/04/28 01:48:55;;;;;;;4.43;3.60;;;2.10;99.90;2.60;99199.00;;;;4814967;29;87673;-60
2022/04/28 01:54:59;;;;;;;5.38;3.55;;;2.10;99.90;2.60;99204.00;;;;4797966;29;86945;-61
2022/04/28 01:57:46;;;;;;;4.60;3.08;;;2.00;99.90;2.50;99204.00;;;;4803995;29;87553;-60
2022/04/28 02:00:26;;;;;;;10.13;3.67;;;1.90;99.90;2.40;99201.00;;;;4818101;29;87483;-60
2022/04/28 02:03:01;;;;;;;3.72;2.95;;;1.90;99.90;2.40;99210.00;;;;4786876;29;88424;-60
2022/04/28 02:05:27;;;;;;;4.55;3.38;;;1.90;99.90;2.30;99207.00;;;;4793770;29;87763;-60
2022/04/28 02:07:54;;;;;;;3.17;2.63;;;1.80;99.90;2.30;99218.00;;;;4790508;29;87577;-60
2022/04/28 02:10:20;;;;;;;3.38;2.83;;;1.80;99.90;2.30;99208.00;;;;4801283;29;87349;-60
2022/04/28 02:12:46;;;;;;;4.05;3.05;;;1.80;99.90;2.30;99222.00;;;;4798659;29;87415;-61
2022/04/28 02:15:32;;;;;;;4.07;3.20;;;1.80;99.90;2.20;99219.00;;;;4801635;29;87371;-60
2022/04/28 02:17:58;;;;;;;7.13;3.20;;;1.70;99.90;2.20;99223.00;;;;4802332;29;89149;-60
2022/04/28 02:20:26;;;;;;;4.25;3.10;;;1.70;99.90;2.20;99225.00;;;;4780658;29;87225;-60
2022/04/28 02:22:53;;;;;;;6.13;3.30;;;1.70;99.90;2.20;99224.00;;;;4805689;29;87076;-60
2022/04/28 02:25:19;;;;;;;5.63;3.47;;;1.70;99.90;2.20;99225.00;;;;4799944;29;87021;-60
2022/04/28 02:27:46;;;;;;;5.28;3.67;;;1.70;99.90;2.20;99221.00;;;;4796876;29;88383;-60
2022/04/28 02:30:13;;;;;;;8.45;3.50;;;1.70;99.90;2.20;99222.00;;;;4794014;29;88733;-60
2022/04/28 02:35:28;;;;;;;4.68;3.55;;;1.70;99.90;2.20;99225.00;;;;4800600;29;87847;-60
2022/04/28 02:37:55;;;;;;;6.50;4.47;;;1.70;99.90;2.30;99226.00;;;;4793464;29;87661;-60
2022/04/28 02:40:21;;;;;;;9.95;4.03;;;1.70;99.90;2.30;99228.00;;;;4812999;29;87486;-61
2022/04/28 02:42:48;;;;;;;4.68;3.85;;;1.80;99.90;2.40;99237.00;;;;4793452;29;87368;-60
2022/04/28 02:45:14;;;;;;;5.75;3.85;;;1.80;99.90;2.40;99228.00;;;;4799148;29;86557;-62
2022/04/28 02:47:48;;;;;;;7.40;4.28;;;1.80;99.90;2.60;99238.00;;;;4794824;29;88442;-62
2022/04/28 02:50:14;;;;;;;7.32;4.20;;;1.90;99.90;2.60;99230.00;;;;4797146;29;87498;-62
2022/04/28 02:52:42;;;;;;;9.35;4.97;;;2.00;99.90;2.90;99231.00;;;;4783273;29;88429;-63
2022/04/28 02:55:09;;;;;;;6.75;4.50;;;2.20;99.90;3.60;99238.00;;;;4796652;29;87665;-63
2022/04/28 02:57:37;;;;;;;4.85;4.18;;;2.60;99.90;4.70;99234.00;;;;4809482;29;88744;-63
2022/04/28 03:00:05;;;;;;;7.65;4.50;;;3.30;99.90;5.50;99237.00;;;;4796621;29;87354;-62
2022/04/28 03:02:38;;;;;;;6.10;4.43;;;4.00;99.90;6.00;99248.00;;;;4814786;29;87072;-62
2022/04/28 03:05:05;;;;;;;5.75;4.00;;;4.50;99.90;6.40;99231.00;;;;4795001;29;87096;-62
2022/04/28 03:13:03;;;;;;;6.50;3.40;;;5.30;99.90;7.00;99246.00;;;;4798986;29;87464;-63
2022/04/28 03:15:32;;;;;;;3.92;2.90;;;5.20;99.90;7.10;99256.00;;;;4798225;29;87279;-63
2022/04/28 03:17:58;;;;;;;6.30;2.65;;;5.30;99.90;7.10;99266.00;;;;4781841;29;89638;-63
2022/04/28 03:20:25;;;;;;;5.03;2.45;;;5.30;99.90;7.10;99255.00;;;;4819096;29;88178;-63
2022/04/28 03:22:51;;;;;;;3.50;2.30;;;5.20;99.90;7.30;99270.00;;;;4779433;29;87719;-63
2022/04/28 03:25:17;;;;;;;3.28;2.15;;;5.40;99.90;7.50;99275.00;;;;4809688;29;87479;-60
2022/04/28 03:27:43;;;;;;;3.60;2.05;;;5.50;99.90;7.50;99271.00;;;;4804323;29;87015;-61
2022/04/28 03:30:10;;;;;;;6.20;2.25;;;5.40;99.90;7.40;99266.00;;;;4806094;29;87393;-61
2022/04/28 03:33:02;;;;;;;4.40;1.90;;;5.40;99.90;7.50;99282.00;;;;4800550;29;87214;-61
2022/04/28 03:35:29;;;;;;;7.13;2.13;;;5.50;99.90;7.80;99289.00;;;;4817451;29;86792;-60
2022/04/28 03:37:58;;;;;;;4.40;2.00;;;5.40;99.90;7.90;99281.00;;;;4816246;29;87537;-61
2022/04/28 03:40:25;;;;;;;5.45;2.22;;;5.70;99.90;8.00;99298.00;;;;4800513;29;88626;-64
2022/04/28 03:42:51;;;;;;;2.70;1.92;;;5.80;99.90;7.90;99279.00;;;;4801019;29;88227;-64
2022/04/28 03:45:18;;;;;;;5.53;1.70;;;5.90;99.90;8.30;99299.00;;;;4800170;29;87523;-64
2022/04/28 03:47:47;;;;;;;2.85;1.60;;;6.00;99.90;8.20;99293.00;;;;4799417;29;90367;-63
2022/04/28 03:50:13;;;;;;;2.80;1.90;;;6.10;99.90;8.80;99296.00;;;;4801568;29;87623;-64
2022/04/28 03:52:40;;;;;;;2.67;1.77;;;6.50;99.90;8.60;99304.00;;;;4800881;29;87332;-64
2022/04/28 03:55:08;;;;;;;3.88;1.90;;;6.50;99.30;8.50;99310.00;;;;4800475;29;87537;-63
2022/04/28 03:57:36;;;;;;;3.70;2.25;;;6.30;99.60;8.60;99308.00;;;;4802211;29;87586;-63
2022/04/28 04:00:06;;;;;;;3.83;1.90;;;6.00;99.90;8.50;99304.00;;;;4817400;29;87367;-64
2022/04/28 04:02:32;;;;;;;3.45;1.63;;;6.00;99.90;8.00;99322.00;;;;4814399;29;87348;-64
2022/04/28 04:05:00;;;;;;;5.72;2.00;;;5.60;99.90;7.30;99318.00;;;;4817017;29;87762;-65
2022/04/28 04:07:32;;;;;;;3.38;1.80;;;5.20;99.90;7.20;99318.00;;;;4808269;29;88621;-64
2022/04/28 04:10:18;;;;;;;3.67;2.03;;;5.20;99.90;7.80;99335.00;;;;4808493;29;88472;-65
2022/04/28 04:12:51;;;;;;;6.85;2.42;;;5.50;99.90;8.10;99326.00;;;;4801154;29;87177;-64
2022/04/28 04:15:17;;;;;;;7.65;2.05;;;5.90;99.90;8.60;99334.00;;;;4801375;29;87113;-63
2022/04/28 04:17:52;;;;;;;4.68;2.05;;;6.20;99.90;8.80;99340.00;;;;4801479;29;87875;-65
2022/04/28 04:20:21;;;;;;;3.85;2.15;;;6.60;98.40;8.40;99350.00;;;;4808121;29;87524;-63
2022/04/28 04:22:48;;;;;;;4.90;2.47;;;6.30;99.30;7.30;99345.00;;;;4801336;29;87110;-64
2022/04/28 04:25:14;;;;;;;6.05;2.50;;;5.60;99.90;7.60;99334.00;;;;4798377;29;86302;-66
2022/04/28 04:27:42;;;;;;;10.32;3.13;;;5.50;99.90;8.50;99340.00;;;;4795540;29;89907;-64
2022/04/28 04:32:59;;;;;;;4.93;2.10;;;7.10;98.00;9.80;99345.00;;;;4788030;29;87947;-63
2022/04/28 04:35:28;;;;;;;3.92;2.03;;;7.40;95.80;9.00;99360.00;;;;4802072;29;87072;-64
2022/04/28 04:37:56;;;;;;;2.13;1.23;;;6.60;97.00;8.00;99372.00;;;;4793874;29;88205;-63
2022/04/28 04:40:27;;;;;;;2.65;1.38;;;5.90;96.30;7.50;99372.00;;;;4814978;29;88380;-64
2022/04/28 04:42:53;;;;;;;7.10;1.55;;;5.30;98.30;6.90;99367.00;;;;4802225;29;87309;-64
2022/04/28 04:45:20;;;;;;;2.13;1.58;;;5.00;99.90;6.40;99373.00;;;;4819178;29;87128;-64
2022/04/28 04:48:13;;;;;;;4.47;1.88;;;4.80;99.90;6.50;99388.00;;;;4797250;29;87744;-60
2022/04/28 04:50:55;;;;;;;2.75;1.25;;;4.90;99.90;6.10;99387.00;;;;4799200;29;88389;-60
2022/04/28 04:53:39;;;;;;;4.75;1.40;;;4.70;99.00;6.10;99391.00;;;;4795721;29;87189;-60
2022/04/28 04:56:06;;;;;;;6.15;1.23;;;4.70;99.40;5.90;99386.00;;;;4813900;29;87270;-61
2022/04/28 04:58:32;;;;;;;4.05;1.30;;;4.50;99.90;5.40;99394.00;;;;4776801;29;89108;-61
2022/04/28 05:00:59;;;;;;;2.78;1.30;;;4.10;99.90;5.00;99392.00;;;;4798565;29;88365;-60
2022/04/28 05:03:25;;;;;;;2.78;1.63;;;3.80;99.90;4.70;99380.00;;;;4802137;29;87119;-60
2022/04/28 05:06:30;;;;;;;2.45;1.30;;;3.60;99.90;4.90;99387.00;;;;4783754;29;87025;-64
2022/04/28 05:09:11;;;;;;;3.88;1.65;;;3.70;99.90;5.00;99386.00;;;;4792083;29;90291;-63
2022/04/28 05:11:41;;;;;;;3.50;1.33;;;4.10;99.90;5.20;99383.00;;;;4800119;29;87407;-62
2022/04/28 05:14:11;;;;;;;4.28;1.80;;;4.30;99.90;5.30;99385.00;;;;4804248;29;87172;-66
2022/04/28 05:16:38;;;;;;;4.50;1.77;;;4.50;99.90;5.40;99393.00;;;;4781582;29;86620;-66
2022/04/28 05:19:23;;;;;;;4.40;1.45;;;4.60;99.90;5.20;99379.00;;;;4815465;29;88103;-66
2022/04/28 05:22:04;;;;;;;2.63;1.20;;;4.40;99.70;5.30;99399.00;;;;4796480;29;87249;-64
2022/04/28 05:24:37;;;;;;;3.42;1.50;;;4.50;99.90;5.60;99384.00;;;;4785767;29;89085;-66
2022/04/28 05:27:21;;;;;;;4.50;1.60;;;4.90;99.10;5.80;99390.00;;;;4802813;29;87032;-65
2022/04/28 05:29:52;;;;;;;2.83;1.40;;;5.20;98.40;6.00;99399.00;;;;4800837;29;89821;-65
2022/04/28 05:32:31;;;;;;;3.05;1.40;;;5.40;97.60;5.80;99394.00;;;;4803034;29;87603;-67
2022/04/28 05:35:09;;;;;;;5.65;1.55;;;5.10;96.90;5.40;99399.00;;;;4806506;29;87293;-65
2022/04/28 05:37:37;;;;;;;6.35;1.45;;;4.70;97.80;5.30;99406.00;;;;4791669;29;87604;-68
2022/04/28 05:40:06;;;;;;;5.82;1.98;;;4.50;99.10;5.20;99398.00;;;;4794922;29;90386;-66
2022/04/28 05:48:03;;;;;;;4.07;1.58;;;4.00;99.90;4.50;99413.00;;;;4781741;29;87430;-66
2022/04/28 05:50:38;;;;;;;4.03;2.05;;;3.80;99.90;4.50;99405.00;;;;4770547;29;91665;-67
2022/04/28 05:53:05;;;;;;;5.10;2.25;;;3.80;99.90;4.80;99396.00;;;;4815133;29;88722;-66
2022/04/28 05:55:31;;;;;;;2.63;1.65;;;4.10;98.80;4.90;99391.00;;;;4784241;29;87601;-63
2022/04/28 05:58:01;;;;;;;4.47;1.90;;;4.10;98.60;4.80;99401.00;;;;4814169;29;87419;-64
2022/04/28 06:02:10;;;;;;;7.50;2.03;;;4.10;98.20;5.00;99395.00;;;;5039072;28;82441;-63
2022/04/28 06:04:36;;;;;;;3.30;1.90;;;4.30;97.10;5.10;99387.00;;;;5018158;28;82031;-62
2022/04/28 06:07:03;;;;;;;7.95;1.83;;;4.50;96.00;5.20;99388.00;;;;5028560;28;82135;-64
2022/04/28 06:09:32;;;;;;;5.13;1.75;;;4.50;95.50;5.20;99388.00;;;;5016597;28;82246;-63
2022/04/28 06:12:00;;;;;;;3.65;1.70;;;4.50;93.20;5.30;99393.00;;;;5018758;28;81698;-62
2022/04/28 06:14:27;;;;;;;3.30;1.50;;;4.60;92.10;5.50;99391.00;;;;5018900;28;81911;-64
2022/04/28 06:17:13;;;;;;;3.95;1.70;;;4.80;90.60;5.60;99393.00;;;;5017618;28;82015;-63
2022/04/28 06:19:39;;;;;;;3.05;1.40;;;4.90;82.50;5.70;99396.00;;;;5018291;28;82498;-63
2022/04/28 06:22:06;;;;;;;3.55;1.40;;;5.00;72.20;5.60;99403.00;;;;5019321;28;81674;-63
2022/04/28 06:24:40;;;;;;;5.18;1.50;;;5.00;70.10;5.50;99402.00;;;;5018889;28;81632;-63
2022/04/28 06:27:07;;;;;;;1.95;1.17;;;4.90;76.90;5.70;99400.00;;;;5018535;28;82299;-62
2022/04/28 06:29:36;;;;;;;3.95;1.55;;;5.10;72.40;5.70;99403.00;;;;5018845;28;82237;-63
2022/04/28 06:32:07;;;;;;;6.13;1.65;;;5.00;70.70;5.70;99404.00;;;;5017902;28;81797;-63
2022/04/28 06:34:52;;;;;;;2.47;1.20;;;5.00;71.10;5.70;99430.00;;;;4998944;28;81992;-64
2022/04/28 06:37:23;;;;;;;2.55;1.55;;;5.00;65.70;5.80;99416.00;;;;5016003;28;82968;-64
2022/04/28 06:39:55;;;;;;;3.70;1.40;;;5.00;63.30;5.80;99419.00;;;;5018155;28;81679;-63
2022/04/28 06:42:21;;;;;;;4.00;1.83;;;5.10;61.50;5.90;99413.00;;;;5019353;28;81828;-64
2022/04/28 06:45:07;;;;;;;4.13;1.83;;;5.10;61.90;5.70;99417.00;;;;5017923;28;82365;-65
2022/04/28 06:47:53;;;;;;;5.10;1.58;;;5.00;65.00;5.60;99418.00;;;;5015120;27;81598;-63
2022/04/28 06:50:37;;;;;;;3.97;1.60;;;4.90;66.00;5.80;99427.00;;;;5019016;28;82287;-62
2022/04/28 06:53:22;;;;;;;6.80;1.52;;;5.10;66.30;5.90;99416.00;;;;5019194;28;82079;-63
2022/04/28 06:55:52;;;;;;;3.72;1.95;;;5.10;63.90;6.20;99426.00;;;;5001206;28;81721;-62
2022/04/28 06:58:18;;;;;;;4.10;1.60;;;5.50;64.70;6.50;99415.00;;;;5017570;28;82511;-63
2022/04/28 07:00:44;;;;;;;4.80;1.75;;;5.70;61.40;6.40;99410.00;;;;5017597;28;82401;-63
2022/04/28 07:03:11;;;;;;;2.10;1.48;;;5.70;59.50;6.60;99406.00;;;;5017386;28;82922;-63
2022/04/28 07:05:39;;;;;;;2.33;1.45;;;5.80;59.10;6.70;99413.00;;;;5021370;28;82070;-63
2022/04/28 07:08:07;;;;;;;3.75;1.42;;;5.90;57.80;6.60;99416.00;;;;5017970;28;82191;-63
2022/04/28 07:10:38;;;;;;;6.20;2.10;;;5.90;59.00;6.20;99408.00;;;;5019639;28;82680;-64
2022/04/28 07:13:04;;;;;;;4.88;2.20;;;5.50;56.30;6.00;99407.00;;;;5011493;28;82283;-63
2022/04/28 07:15:49;;;;;;;5.20;1.95;;;5.40;57.40;6.20;99419.00;;;;5002295;28;81900;-64
2022/04/28 07:18:34;;;;;;;8.25;2.30;;;5.50;57.50;6.30;99414.00;;;;5003664;28;81626;-63
2022/04/28 07:21:02;;;;;;;6.90;2.03;;;5.50;60.50;6.30;99409.00;;;;5003495;28;82882;-63
2022/04/28 07:23:29;;;;;;;3.53;1.50;;;5.50;56.00;6.00;99413.00;;;;5003663;28;81747;-62
2022/04/28 07:25:56;;;;;;;10.70;1.70;;;5.20;56.00;6.00;99418.00;;;;5003540;28;82750;-64
2022/04/28 07:28:23;;;;;;;7.80;2.20;;;5.30;57.30;6.00;99410.00;;;;5020102;28;82763;-64
2022/04/28 07:31:09;;;;;;;6.82;1.92;;;5.30;58.50;5.90;99417.00;;;;5004353;28;82225;-62
2022/04/28 07:33:54;;;;;;;6.13;2.10;;;5.10;60.00;6.10;99420.00;;;;5005499;28;81942;-63
2022/04/28 07:36:49;;;;;;;5.50;1.98;;;5.30;58.80;6.10;99434.00;;;;5020640;28;82234;-63
2022/04/28 07:39:21;;;;;;;7.25;2.05;;;5.40;61.00;6.30;99429.00;;;;5004918;28;82371;-63
2022/04/28 07:42:19;;;;;;;6.32;1.85;;;5.60;57.50;6.60;99423.00;;;;5004870;28;82254;-63
2022/04/28 07:44:48;;;;;;;4.63;1.90;;;5.80;57.10;6.70;99427.00;;;;5003938;28;81891;-62
2022/04/28 07:47:14;;;;;;;3.72;1.88;;;5.80;56.20;6.70;99432.00;;;;5003660;28;82002;-63
2022/04/28 07:49:46;;;;;;;5.30;1.67;;;5.80;54.00;6.70;99428.00;;;;5003395;28;82314;-64
2022/04/28 07:52:12;;;;;;;6.97;1.75;;;5.70;54.60;6.50;99430.00;;;;5005249;28;83463;-63
2022/04/28 07:54:40;;;;;;;5.20;2.10;;;5.60;55.30;6.40;99431.00;;;;5004471;28;82184;-63
2022/04/28 07:57:06;;;;;;;7.50;2.25;;;5.60;55.80;6.50;99430.00;;;;5004468;28;81564;-62
2022/04/28 07:59:33;;;;;;;11.25;2.33;;;5.60;57.10;6.50;99452.00;;;;5004475;28;82721;-61
2022/04/28 08:02:09;;;;;;;4.25;1.70;;;5.60;59.30;6.50;99444.00;;;;5002583;28;82372;-63
2022/04/28 08:04:35;;;;;;;5.50;2.30;;;5.60;55.80;6.40;99434.00;;;;4987798;28;82223;-64
2022/04/28 08:07:02;;;;;;;4.72;1.90;;;5.50;55.90;6.50;99441.00;;;;5003492;28;81806;-64
2022/04/28 08:09:31;;;;;;;4.70;1.67;;;5.60;54.60;6.50;99435.00;;;;5003987;28;81724;-66
2022/04/28 08:11:58;;;;;;;3.05;1.83;;;5.60;53.90;6.50;99448.00;;;;5020363;28;85063;-65
2022/04/28 08:14:25;;;;;;;3.08;1.80;;;5.60;54.30;6.70;99443.00;;;;5003132;28;82019;-63
2022/04/28 08:16:55;;;;;;;4.15;1.85;;;5.80;52.60;6.50;99432.00;;;;5002519;28;82762;-63
2022/04/28 08:19:22;;;;;;;2.85;1.52;;;5.60;52.60;6.50;99428.00;;;;5000866;28;81703;-64
2022/04/28 08:22:14;;;;;;;5.63;1.63;;;5.60;51.70;6.50;99425.00;;;;5000320;28;82258;-64
2022/04/28 08:24:42;;;;;;;3.67;1.65;;;5.80;52.60;7.00;99415.00;;;;5018661;28;82844;-63
2022/04/28 08:27:08;;;;;;;5.70;1.73;;;6.20;51.80;7.40;99436.00;;;;5004324;28;81616;-64
2022/04/28 08:29:35;;;;;;;4.93;3.05;;;6.50;51.40;7.70;99417.00;;;;5003527;28;81789;-64
2022/04/28 08:32:12;;;;;;;5.95;2.05;;;6.90;50.20;8.10;99418.00;;;;5002731;28;82439;-64
2022/04/28 08:34:39;;;;;;;6.50;2.00;;;7.20;49.50;8.40;99425.00;;;;5002598;28;82158;-64
2022/04/28 08:37:05;;;;;;;3.15;1.80;;;7.60;48.50;8.20;99430.00;;;;4986801;28;82172;-63
2022/04/28 08:39:31;;;;;;;3.03;1.58;;;7.30;48.50;8.20;99439.00;;;;5004153;28;81657;-63
2022/04/28 08:42:00;;;;;;;8.32;1.90;;;7.30;48.40;7.90;99429.00;;;;5002705;28;82001;-63
2022/04/28 08:44:59;;;;;;;6.30;2.00;;;7.10;49.10;8.10;99432.00;;;;5002420;28;81894;-64
2022/04/28 08:47:32;;;;;;;5.93;2.08;;;7.10;48.50;8.00;99432.00;;;;5003640;28;81671;-63
2022/04/28 08:50:25;;;;;;;4.95;1.80;;;7.00;48.70;7.70;99438.00;;;;4986638;28;82149;-63
2022/04/28 08:53:05;;;;;;;3.45;1.58;;;6.60;49.50;7.70;99444.00;;;;4987632;28;83655;-64
2022/04/28 08:55:34;;;;;;;11.93;2.30;;;6.60;50.10;7.80;99426.00;;;;4986101;28;82137;-64
2022/04/28 08:58:01;;;;;;;7.97;2.20;;;6.70;50.50;8.20;99445.00;;;;5002490;28;81763;-64
2022/04/28 09:00:30;;;;;;;7.93;2.10;;;7.00;50.20;8.20;99426.00;;;;5002019;28;82098;-64
2022/04/28 09:03:19;;;;;;;9.95;2.20;;;7.10;50.10;8.10;99417.00;;;;4996147;28;82617;-65
2022/04/28 09:06:25;;;;;;;6.63;2.33;;;7.10;51.30;8.30;99419.00;;;;5008756;28;81819;-64
2022/04/28 09:08:55;;;;;;;6.30;2.20;;;7.20;50.70;8.30;99406.00;;;;5004650;28;81520;-64
2022/04/28 09:11:46;;;;;;;4.00;1.92;;;7.30;50.10;7.80;99420.00;;;;4990059;28;81709;-63
2022/04/28 09:14:31;;;;;;;6.00;2.17;;;6.90;50.40;7.90;99425.00;;;;4997857;28;82211;-63
2022/04/28 09:17:02;;;;;;;5.25;2.20;;;6.80;50.90;7.80;99418.00;;;;5002052;28;82637;-63
2022/04/28 09:19:36;;;;;;;7.72;2.20;;;6.80;49.50;7.70;99412.00;;;;5003965;28;81794;-64
2022/04/28 09:22:13;;;;;;;4.03;2.20;;;6.70;50.50;7.80;99404.00;;;;4997740;28;81596;-63
2022/04/28 09:24:46;;;;;;;6.05;2.03;;;6.80;50.80;8.00;99419.00;;;;5003053;28;83439;-64
2022/04/28 09:27:16;;;;;;;4.32;2.25;;;7.10;50.20;8.20;99418.00;;;;5003584;28;81649;-62
2022/04/28 09:29:46;;;;;;;6.30;2.55;;;7.20;49.90;8.40;99429.00;;;;5002803;28;82017;-63
2022/04/28 09:32:15;;;;;;;4.47;2.00;;;7.30;48.70;8.20;99411.00;;;;5002509;28;81890;-63
2022/04/28 09:35:17;;;;;;;7.05;2.28;;;7.30;48.50;8.60;99432.00;;;;4968775;28;82874;-65
2022/04/28 09:37:48;;;;;;;7.13;2.47;;;7.60;49.50;8.30;99427.00;;;;4999903;28;81805;-64
2022/04/28 09:43:03;;;;;;;4.80;1.73;;;6.90;49.00;7.70;99428.00;;;;5003184;28;81548;-63
2022/04/28 09:45:38;;;;;;;3.97;1.70;;;6.70;48.50;7.70;99433.00;;;;4988964;28;82305;-63
2022/04/28 09:48:06;;;;;;;3.65;1.90;;;6.60;49.40;7.60;99429.00;;;;4983262;28;81831;-63
2022/04/28 09:50:41;;;;;;;4.72;1.83;;;6.60;50.90;7.80;99438.00;;;;4999681;28;81655;-60
2022/04/28 09:53:30;;;;;;;6.18;2.03;;;6.70;51.50;7.80;99437.00;;;;5003016;28;81692;-63
2022/04/28 09:56:27;;;;;;;6.07;1.73;;;6.80;51.50;8.00;99426.00;;;;5002091;28;84077;-63
2022/04/28 09:59:05;;;;;;;4.38;1.95;;;7.10;49.90;8.20;99433.00;;;;4986262;28;83034;-64
2022/04/28 10:01:34;;;;;;;3.00;1.92;;;7.30;49.40;8.40;99437.00;;;;5001927;28;82897;-63
2022/04/28 10:04:01;;;;;;;3.47;2.08;;;7.40;48.80;8.80;99442.00;;;;5002983;28;81760;-64
2022/04/28 10:06:48;;;;;;;6.95;2.10;;;7.80;48.20;9.20;99441.00;;;;5005879;28;82181;-63
2022/04/28 10:09:22;;;;;;;6.10;2.30;;;8.20;47.00;9.40;99437.00;;;;5000466;28;83717;-64
2022/04/28 10:11:52;;;;;;;10.48;2.20;;;8.30;47.30;9.60;99434.00;;;;5000054;28;81892;-64
2022/04/28 10:14:25;;;;;;;3.38;1.90;;;8.40;47.60;9.70;99434.00;;;;4985986;28;84177;-63
2022/04/28 10:16:52;;;;;;;5.65;2.00;;;8.50;45.40;9.50;99455.00;;;;5001176;28;82751;-63
2022/04/28 10:19:30;;;;;;;3.08;1.90;;;8.40;45.90;9.20;99442.00;;;;5001637;28;83124;-64
2022/04/28 10:22:13;;;;;;;5.88;1.80;;;8.10;47.40;8.90;99438.00;;;;5002156;28;82198;-64
2022/04/28 10:33:27;;;;;;;5.40;2.42;;;7.60;48.70;8.20;99443.00;;;;4996612;28;83371;-63
2022/04/28 10:35:56;;;;;;;4.15;2.20;;;7.10;49.00;8.20;99441.00;;;;5003310;28;81961;-64
2022/04/28 10:38:30;;;;;;;8.07;2.05;;;7.20;49.80;8.50;99440.00;;;;5002863;28;82180;-64
2022/04/28 10:41:02;;;;;;;7.07;1.95;;;7.50;49.00;8.80;99445.00;;;;5002780;28;82648;-63
2022/04/28 10:43:39;;;;;;;5.00;2.28;;;7.80;48.00;8.80;99440.00;;;;5002418;28;82847;-64
2022/04/28 10:46:08;;;;;;;5.22;2.05;;;7.70;48.20;8.60;99434.00;;;;5001299;28;81906;-64
2022/04/28 10:48:45;;;;;;;5.10;1.95;;;7.50;48.60;8.70;99428.00;;;;5005823;28;82200;-64
2022/04/28 10:51:22;;;;;;;6.80;2.10;;;7.60;48.90;9.00;99431.00;;;;5005354;28;83464;-64
2022/04/28 10:54:14;;;;;;;3.78;2.17;;;8.00;48.60;9.20;99439.00;;;;5006250;28;83156;-65
2022/04/28 10:56:54;;;;;;;5.78;1.95;;;8.20;47.70;9.50;99445.00;;;;5004023;28;82913;-64
2022/04/28 10:59:35;;;;;;;4.00;2.10;;;8.50;46.60;9.60;99434.00;;;;5005856;28;82493;-62
2022/04/28 11:02:10;;;;;;;3.87;2.13;;;8.50;46.30;9.90;99430.00;;;;5005853;28;82613;-64
2022/04/28 11:04:39;;;;;;;7.20;2.17;;;8.70;45.80;9.50;99423.00;;;;5010682;28;81959;-64
2022/04/28 11:07:11;;;;;;;5.22;2.53;;;8.40;45.50;9.40;99426.00;;;;5006540;28;82226;-64
2022/04/28 11:09:55;;;;;;;5.22;2.38;;;8.20;46.50;9.50;99421.00;;;;5006971;28;82386;-64
2022/04/28 11:12:25;;;;;;;10.05;2.42;;;8.30;46.40;9.30;99424.00;;;;5004680;28;82417;-64
2022/04/28 11:15:02;;;;;;;6.55;2.42;;;8.10;46.60;9.60;99413.00;;;;5005147;28;82354;-64
2022/04/28 11:17:34;;;;;;;3.75;2.00;;;8.40;46.40;9.60;99414.00;;;;5004770;28;83008;-64
2022/04/28 11:20:04;;;;;;;3.92;1.60;;;8.30;46.60;9.40;99423.00;;;;5002877;28;82499;-64
2022/04/28 11:22:32;;;;;;;2.58;1.80;;;8.30;45.30;9.20;99402.00;;;;5003899;28;84972;-64
2022/04/28 11:24:59;;;;;;;7.50;1.85;;;8.00;45.70;9.20;99406.00;;;;4997613;28;83308;-64
2022/04/28 11:27:40;;;;;;;5.40;2.20;;;8.10;45.80;9.20;99399.00;;;;5001021;28;82567;-64
2022/04/28 11:30:18;;;;;;;10.57;2.00;;;8.10;45.70;9.10;99412.00;;;;5003683;28;82229;-63
2022/04/28 11:32:51;;;;;;;3.35;1.50;;;8.10;45.90;8.80;99399.00;;;;5000425;28;82512;-64
2022/04/28 11:35:19;;;;;;;6.53;2.05;;;7.80;47.00;8.50;99410.00;;;;4988548;28;81988;-63
2022/04/28 11:37:48;;;;;;;4.72;2.00;;;7.70;47.60;8.80;99407.00;;;;5005245;28;82540;-63
2022/04/28 11:40:16;;;;;;;3.80;1.88;;;7.70;47.30;8.90;99400.00;;;;4994820;28;84002;-64
2022/04/28 11:42:44;;;;;;;6.10;2.03;;;7.80;46.60;9.20;99397.00;;;;5004956;28;83418;-64
2022/04/28 11:45:11;;;;;;;5.50;2.08;;;8.10;46.40;9.50;99395.00;;;;4998511;28;84441;-61
2022/04/28 11:47:45;;;;;;;7.43;2.50;;;8.40;46.10;9.60;99387.00;;;;4988846;28;84553;-62
2022/04/28 11:50:27;;;;;;;5.65;2.78;;;8.50;44.90;9.70;99393.00;;;;5003159;28;83509;-63
2022/04/28 11:53:12;;;;;;;5.30;2.03;;;8.70;45.10;9.90;99397.00;;;;4985591;28;82660;-65
2022/04/28 11:55:40;;;;;;;3.42;1.52;;;9.00;45.00;10.10;99397.00;;;;4999585;28;83650;-64
2022/04/28 11:59:53;;;;;;;6.53;2.10;;;9.00;46.00;10.00;99383.00;;;;5043028;28;81427;-62
2022/04/28 12:02:34;;;;;;;6.45;3.40;;;8.90;45.10;10.00;99377.00;;;;5020244;28;81590;-61
2022/04/28 12:05:25;;;;;;;8.27;2.40;;;8.80;44.80;9.10;99386.00;;;;5027846;28;81536;-62
2022/04/28 12:07:54;;;;;;;2.47;1.48;;;8.40;45.60;9.30;99377.00;;;;5016027;28;82965;-62